Time;durP1;ratioP1;P1;durP2;ratioP2;P2;SDS_P1;SDS_P2;PMS_P1;PMS_P2;Temp;Humidity;BMP_temperature;BMP_pressure;BME280_temperature;BME280_humidity;BME280_pressure;Samples;Min_cycle;Max_cycle;Signal;HPM_P1;HPM_P2
2022/09/26 00:01:59;;;;;;;3.23;2.00;;;13.40;99.90;;;;;;5050041;28;20682;-72
2022/09/26 00:04:29;;;;;;;3.43;2.23;;;13.30;99.90;;;;;;5050686;28;20215;-72
2022/09/26 00:06:57;;;;;;;3.47;2.07;;;13.30;99.90;;;;;;5045307;28;20216;-73
2022/09/26 00:09:26;;;;;;;2.50;2.07;;;13.30;99.90;;;;;;5038730;28;20211;-72
2022/09/26 00:11:54;;;;;;;6.37;2.50;;;13.40;99.90;;;;;;5050023;28;20227;-73
2022/09/26 00:14:23;;;;;;;2.30;2.20;;;13.30;99.90;;;;;;5049871;28;20201;-73
2022/09/26 00:16:50;;;;;;;2.27;1.87;;;13.40;99.90;;;;;;5050044;28;20666;-73
2022/09/26 00:19:17;;;;;;;2.57;2.07;;;13.40;99.90;;;;;;5050056;28;20589;-72
2022/09/26 00:21:45;;;;;;;2.80;2.60;;;13.50;99.90;;;;;;5050427;28;20216;-73
2022/09/26 00:24:12;;;;;;;2.80;2.50;;;13.40;99.90;;;;;;5053438;28;20239;-73
2022/09/26 00:26:39;;;;;;;3.13;2.53;;;13.40;99.90;;;;;;5051877;28;20208;-72
2022/09/26 00:29:08;;;;;;;2.70;2.50;;;13.30;99.90;;;;;;5030199;28;20216;-72
2022/09/26 00:31:37;;;;;;;2.87;2.53;;;13.30;99.90;;;;;;5031291;28;20229;-72
2022/09/26 00:34:04;;;;;;;2.60;2.40;;;13.30;99.90;;;;;;5050105;28;20592;-72
2022/09/26 00:36:32;;;;;;;2.63;2.40;;;13.30;99.90;;;;;;5050129;28;20234;-72
2022/09/26 00:39:00;;;;;;;3.47;2.80;;;13.20;99.90;;;;;;5029908;28;20213;-73
2022/09/26 00:41:27;;;;;;;4.33;3.00;;;13.10;99.90;;;;;;5032711;28;20208;-73
2022/09/26 00:43:55;;;;;;;5.57;2.40;;;13.10;99.90;;;;;;5049975;28;20216;-73
2022/09/26 00:46:28;;;;;;;2.83;2.40;;;13.10;99.90;;;;;;5049479;28;20342;-73
2022/09/26 00:49:04;;;;;;;3.50;2.60;;;13.10;99.90;;;;;;5049220;28;20197;-73
2022/09/26 00:51:32;;;;;;;2.87;2.40;;;13.10;99.90;;;;;;5049806;28;20227;-73
2022/09/26 00:54:01;;;;;;;2.93;2.70;;;13.10;99.90;;;;;;5049210;28;20295;-73
2022/09/26 00:56:31;;;;;;;2.67;2.47;;;13.20;99.90;;;;;;5049207;28;20667;-73
2022/09/26 00:59:02;;;;;;;2.60;2.30;;;13.10;99.90;;;;;;5049746;28;20219;-72
2022/09/26 01:01:29;;;;;;;2.90;2.70;;;13.00;99.90;;;;;;5049822;28;20598;-72
2022/09/26 01:03:56;;;;;;;3.30;2.80;;;13.00;99.90;;;;;;5039147;28;20208;-72
2022/09/26 01:06:23;;;;;;;3.20;2.90;;;13.00;99.90;;;;;;5049207;28;20222;-73
2022/09/26 01:08:55;;;;;;;2.67;2.47;;;13.00;99.90;;;;;;5049018;28;20294;-73
2022/09/26 01:11:23;;;;;;;3.10;2.80;;;13.00;99.90;;;;;;5048821;28;20662;-73
2022/09/26 01:13:52;;;;;;;4.60;2.70;;;13.00;99.90;;;;;;5049019;28;20231;-73
2022/09/26 01:16:19;;;;;;;3.10;2.70;;;13.10;99.90;;;;;;5049197;28;20234;-72
2022/09/26 01:18:47;;;;;;;5.13;3.07;;;13.10;99.90;;;;;;5047503;28;20588;-71
2022/09/26 01:21:47;;;;;;;3.00;2.80;;;13.00;99.90;;;;;;5028872;28;20625;-72
2022/09/26 01:24:39;;;;;;;2.90;2.60;;;13.10;99.90;;;;;;5029222;28;20240;-71
2022/09/26 01:27:27;;;;;;;2.80;2.53;;;13.10;99.90;;;;;;5048615;28;20196;-71
2022/09/26 01:30:09;;;;;;;3.40;3.10;;;13.00;99.90;;;;;;5047491;28;20224;-71
2022/09/26 01:32:58;;;;;;;5.83;2.57;;;13.00;99.90;;;;;;5048273;28;20199;-71
2022/09/26 01:35:51;;;;;;;3.53;3.23;;;12.90;99.90;;;;;;5048673;28;20258;-71
2022/09/26 01:38:26;;;;;;;3.17;2.90;;;12.80;99.90;;;;;;5048537;28;20192;-71
2022/09/26 01:41:07;;;;;;;2.83;2.63;;;12.80;99.90;;;;;;5048147;28;20670;-73
2022/09/26 01:43:41;;;;;;;4.20;3.00;;;12.90;99.90;;;;;;5047719;28;20215;-73
2022/09/26 01:46:23;;;;;;;3.27;2.87;;;12.90;99.90;;;;;;5048745;28;20207;-73
2022/09/26 01:48:54;;;;;;;2.60;2.37;;;12.90;99.90;;;;;;5048149;28;20220;-73
2022/09/26 01:51:26;;;;;;;4.27;2.80;;;13.00;99.90;;;;;;5048553;28;20494;-73
2022/09/26 01:53:58;;;;;;;3.27;2.40;;;13.10;99.90;;;;;;5049315;28;20188;-73
2022/09/26 01:56:28;;;;;;;3.70;2.60;;;13.10;99.90;;;;;;5033776;28;20647;-73
2022/09/26 01:58:59;;;;;;;3.73;2.67;;;13.20;99.90;;;;;;5048585;28;20196;-73
2022/09/26 02:01:31;;;;;;;3.50;2.47;;;13.20;99.90;;;;;;5048209;28;20205;-73
2022/09/26 02:04:03;;;;;;;3.67;2.67;;;13.30;99.90;;;;;;5048266;28;20207;-73
2022/09/26 02:06:35;;;;;;;2.50;2.30;;;13.30;99.90;;;;;;5045604;28;20203;-73
2022/09/26 02:09:06;;;;;;;3.00;2.47;;;13.30;99.90;;;;;;5028057;28;20221;-71
2022/09/26 02:11:34;;;;;;;3.57;2.80;;;13.30;99.90;;;;;;5030670;28;20718;-73
2022/09/26 02:14:05;;;;;;;2.83;2.63;;;13.30;99.90;;;;;;5047519;28;20200;-73
2022/09/26 02:16:38;;;;;;;3.00;2.73;;;13.30;99.90;;;;;;5048065;28;20596;-72
2022/09/26 02:19:12;;;;;;;4.50;2.80;;;13.30;99.90;;;;;;5045577;28;20200;-73
2022/09/26 02:21:40;;;;;;;4.60;2.53;;;13.30;99.90;;;;;;5048008;28;20200;-73
2022/09/26 02:24:07;;;;;;;2.90;2.63;;;13.30;99.90;;;;;;5050874;28;20231;-73
2022/09/26 02:26:34;;;;;;;5.07;2.53;;;13.30;99.90;;;;;;5067484;28;20574;-73
2022/09/26 02:29:01;;;;;;;2.90;2.70;;;13.30;99.90;;;;;;5049014;28;20277;-73
2022/09/26 02:31:34;;;;;;;3.10;2.60;;;13.10;99.90;;;;;;5038872;28;20228;-73
2022/09/26 02:34:03;;;;;;;3.23;2.83;;;13.00;99.90;;;;;;5028023;28;20193;-75
2022/09/26 02:36:33;;;;;;;2.70;2.33;;;13.00;99.90;;;;;;5027571;28;20770;-75
2022/09/26 02:39:00;;;;;;;3.07;2.40;;;13.00;99.90;;;;;;5027746;28;20301;-74
2022/09/26 02:41:33;;;;;;;3.33;2.30;;;13.00;99.90;;;;;;5026590;28;20228;-75
2022/09/26 02:44:20;;;;;;;4.40;2.30;;;13.00;99.90;;;;;;5037449;28;20200;-74
2022/09/26 02:47:04;;;;;;;2.80;2.60;;;13.00;99.90;;;;;;5027696;28;20201;-74
2022/09/26 02:49:49;;;;;;;5.47;2.63;;;13.00;99.90;;;;;;5039555;28;20199;-74
2022/09/26 02:52:32;;;;;;;4.70;2.43;;;13.00;99.90;;;;;;5047925;28;20211;-74
2022/09/26 02:55:18;;;;;;;2.60;2.37;;;12.90;99.90;;;;;;5055022;28;20235;-74
2022/09/26 02:57:54;;;;;;;5.70;2.83;;;12.90;99.90;;;;;;5027734;28;20197;-73
2022/09/26 03:00:23;;;;;;;4.47;2.40;;;12.80;99.90;;;;;;5033212;28;20218;-72
2022/09/26 03:02:57;;;;;;;2.70;2.50;;;12.70;99.90;;;;;;5027460;28;20216;-72
2022/09/26 03:05:29;;;;;;;2.80;2.43;;;12.70;99.90;;;;;;5027319;28;20645;-73
2022/09/26 03:08:00;;;;;;;4.60;2.57;;;12.70;99.90;;;;;;5037020;28;20188;-75
2022/09/26 03:10:30;;;;;;;3.10;2.33;;;12.70;99.90;;;;;;5046990;28;20232;-71
2022/09/26 03:13:01;;;;;;;4.60;2.50;;;12.60;99.90;;;;;;5046996;28;20215;-71
2022/09/26 03:15:29;;;;;;;2.80;2.60;;;12.60;99.90;;;;;;5047272;28;20195;-71
2022/09/26 03:17:58;;;;;;;2.67;2.23;;;12.50;99.90;;;;;;5046259;28;20211;-70
2022/09/26 03:20:26;;;;;;;2.63;2.43;;;12.40;99.90;;;;;;5039154;28;20208;-71
2022/09/26 03:22:53;;;;;;;4.43;2.40;;;12.40;99.90;;;;;;5045165;28;20246;-71
2022/09/26 03:25:24;;;;;;;3.73;2.53;;;12.50;99.90;;;;;;5058408;28;20234;-71
2022/09/26 03:27:51;;;;;;;4.73;2.10;;;12.50;99.90;;;;;;5053362;28;20208;-70
2022/09/26 03:30:20;;;;;;;3.13;2.50;;;12.50;99.90;;;;;;5045087;28;20219;-71
2022/09/26 03:32:46;;;;;;;2.83;2.60;;;12.50;99.90;;;;;;5027082;28;20236;-71
2022/09/26 03:35:14;;;;;;;3.57;2.60;;;12.40;99.90;;;;;;5024752;28;20791;-71
2022/09/26 03:37:42;;;;;;;5.23;4.73;;;12.50;99.90;;;;;;5042900;28;20211;-71
2022/09/26 03:40:12;;;;;;;9.10;3.30;;;12.50;99.90;;;;;;5044606;28;20209;-71
2022/09/26 03:42:39;;;;;;;2.60;2.40;;;12.50;99.90;;;;;;5044211;28;20212;-71
2022/09/26 03:45:09;;;;;;;2.50;2.30;;;12.50;99.90;;;;;;5034745;28;20208;-72
2022/09/26 03:47:36;;;;;;;4.77;2.93;;;12.50;99.90;;;;;;5046514;28;20236;-74
2022/09/26 03:50:04;;;;;;;3.23;2.53;;;12.40;99.90;;;;;;5047223;28;20265;-73
2022/09/26 03:52:31;;;;;;;3.67;2.10;;;12.50;99.90;;;;;;5048986;28;20243;-73
2022/09/26 03:54:59;;;;;;;3.10;2.80;;;12.50;99.90;;;;;;5056247;28;20211;-72
2022/09/26 03:57:26;;;;;;;2.97;2.27;;;12.60;99.90;;;;;;5044588;28;20204;-73
2022/09/26 03:59:54;;;;;;;2.60;2.40;;;12.60;99.90;;;;;;5050139;28;20686;-71
2022/09/26 04:02:21;;;;;;;5.00;2.37;;;12.70;99.90;;;;;;5049412;28;20212;-71
2022/09/26 04:04:48;;;;;;;2.83;2.57;;;12.70;99.90;;;;;;5040692;28;20666;-71
2022/09/26 04:07:14;;;;;;;2.83;2.60;;;12.50;99.90;;;;;;5047494;28;20204;-71
2022/09/26 04:09:41;;;;;;;4.23;2.67;;;12.40;99.90;;;;;;5049563;28;20215;-71
2022/09/26 04:12:09;;;;;;;3.63;2.50;;;12.30;99.90;;;;;;5041314;28;20232;-71
2022/09/26 04:14:36;;;;;;;3.00;2.80;;;12.30;99.90;;;;;;5043483;28;20976;-71
2022/09/26 04:17:03;;;;;;;3.87;2.70;;;12.30;99.90;;;;;;5040955;28;20201;-71
2022/09/26 04:19:30;;;;;;;3.27;2.30;;;12.20;99.90;;;;;;5042424;28;20718;-71
2022/09/26 04:21:57;;;;;;;3.37;2.90;;;12.20;99.90;;;;;;5041421;28;20232;-71
2022/09/26 04:24:24;;;;;;;3.03;2.80;;;12.20;99.90;;;;;;5043167;28;20327;-71
2022/09/26 04:26:51;;;;;;;3.00;2.80;;;12.20;99.90;;;;;;5040946;28;20204;-71
2022/09/26 04:29:22;;;;;;;3.47;2.57;;;12.10;99.90;;;;;;5041664;28;20193;-71
2022/09/26 04:31:50;;;;;;;2.97;2.70;;;12.10;99.90;;;;;;5040824;28;20726;-71
2022/09/26 04:34:16;;;;;;;4.17;2.77;;;12.20;99.90;;;;;;5043793;28;20607;-71
2022/09/26 04:36:43;;;;;;;3.17;2.73;;;12.20;99.90;;;;;;5042676;28;20240;-71
2022/09/26 04:39:10;;;;;;;3.17;2.70;;;12.20;99.90;;;;;;5040209;28;20204;-70
2022/09/26 04:41:37;;;;;;;3.47;2.80;;;12.30;99.90;;;;;;5040190;28;20208;-70
2022/09/26 04:44:04;;;;;;;7.60;2.90;;;12.30;99.90;;;;;;5039650;28;20671;-70
2022/09/26 04:46:32;;;;;;;2.93;2.70;;;12.20;99.90;;;;;;5043773;28;20200;-71
2022/09/26 04:49:00;;;;;;;3.00;2.70;;;12.20;99.90;;;;;;5039466;28;21089;-70
2022/09/26 04:51:28;;;;;;;3.40;2.33;;;12.20;99.90;;;;;;5039653;28;20238;-70
2022/09/26 04:53:56;;;;;;;4.40;2.90;;;12.20;99.90;;;;;;5043193;28;20208;-71
2022/09/26 04:56:25;;;;;;;3.60;2.87;;;12.20;99.90;;;;;;5040885;28;20204;-71
2022/09/26 04:58:53;;;;;;;3.97;2.67;;;12.20;99.90;;;;;;5037686;28;20216;-71
2022/09/26 05:01:21;;;;;;;3.63;2.60;;;12.20;99.90;;;;;;5039202;28;20646;-71
2022/09/26 05:03:49;;;;;;;3.23;2.53;;;12.30;99.90;;;;;;5034531;28;20208;-72
2022/09/26 05:06:17;;;;;;;2.60;2.40;;;12.30;99.90;;;;;;5038340;28;20207;-71
2022/09/26 05:08:46;;;;;;;5.83;2.57;;;12.30;99.90;;;;;;5039479;28;20213;-71
2022/09/26 05:11:15;;;;;;;4.00;3.60;;;12.30;99.90;;;;;;5039296;28;20765;-71
2022/09/26 05:13:41;;;;;;;3.03;2.93;;;12.30;99.90;;;;;;5037192;28;20212;-71
2022/09/26 05:16:10;;;;;;;3.23;2.93;;;12.30;99.90;;;;;;5038105;28;20209;-72
2022/09/26 05:18:38;;;;;;;2.80;2.60;;;12.30;99.90;;;;;;5038679;28;20200;-71
2022/09/26 05:21:07;;;;;;;3.80;2.77;;;12.30;99.90;;;;;;5036875;28;20219;-71
2022/09/26 05:26:23;;;;;;;2.60;2.40;;;12.30;99.90;;;;;;5037393;28;20207;-71
2022/09/26 05:28:52;;;;;;;4.87;2.77;;;12.30;99.90;;;;;;5037952;28;20196;-71
2022/09/26 05:31:20;;;;;;;3.73;2.80;;;12.20;99.90;;;;;;5040641;28;20597;-71
2022/09/26 05:33:47;;;;;;;3.20;2.87;;;12.20;99.90;;;;;;5036958;28;20238;-71
2022/09/26 05:36:16;;;;;;;3.53;2.73;;;12.20;99.90;;;;;;5039787;28;20201;-71
2022/09/26 05:38:42;;;;;;;3.10;2.87;;;12.00;99.90;;;;;;5038844;28;20622;-71
2022/09/26 05:41:08;;;;;;;3.37;3.03;;;11.90;99.90;;;;;;5037103;28;20204;-71
2022/09/26 05:43:35;;;;;;;4.23;2.90;;;11.80;99.90;;;;;;5033873;28;20212;-71
2022/09/26 05:46:03;;;;;;;2.73;2.53;;;11.70;99.90;;;;;;5034926;28;20211;-71
2022/09/26 05:48:32;;;;;;;7.23;3.00;;;11.80;99.90;;;;;;5037578;28;20276;-70
2022/09/26 05:51:03;;;;;;;4.27;2.53;;;11.90;99.90;;;;;;5037514;28;20730;-71
2022/09/26 05:53:32;;;;;;;3.67;2.80;;;12.00;99.90;;;;;;5036998;28;20259;-71
2022/09/26 05:55:59;;;;;;;5.27;3.00;;;12.10;99.90;;;;;;5045034;28;20205;-70
2022/09/26 05:58:31;;;;;;;3.00;2.60;;;12.20;99.90;;;;;;5034917;28;20236;-71
2022/09/26 06:01:05;;;;;;;2.53;2.33;;;12.30;99.90;;;;;;5043873;28;20204;-71
2022/09/26 06:03:33;;;;;;;3.73;2.60;;;12.40;99.90;;;;;;5045254;28;20205;-71
2022/09/26 06:06:04;;;;;;;5.73;3.00;;;12.50;99.90;;;;;;5043605;28;20208;-71
2022/09/26 06:08:33;;;;;;;3.40;2.60;;;12.60;99.90;;;;;;5043505;28;20212;-71
2022/09/26 06:11:02;;;;;;;4.13;2.57;;;12.60;99.90;;;;;;5046799;28;20236;-71
2022/09/26 06:13:29;;;;;;;3.17;2.80;;;12.60;99.90;;;;;;5038120;28;20789;-71
2022/09/26 06:15:56;;;;;;;2.73;2.53;;;12.70;99.90;;;;;;5038709;28;20587;-71
2022/09/26 06:18:23;;;;;;;2.83;2.63;;;12.70;99.90;;;;;;5035410;28;20203;-71
2022/09/26 06:20:50;;;;;;;3.53;2.53;;;12.80;99.90;;;;;;5038679;28;20207;-71
2022/09/26 06:23:17;;;;;;;3.03;2.73;;;12.80;99.90;;;;;;5042663;28;20240;-71
2022/09/26 06:25:45;;;;;;;2.97;2.50;;;12.80;99.90;;;;;;5040568;28;20204;-71
2022/09/26 06:28:11;;;;;;;3.47;2.70;;;12.80;99.90;;;;;;5034317;28;20212;-71
2022/09/26 06:30:39;;;;;;;3.00;2.67;;;12.90;99.90;;;;;;5033897;28;20208;-71
2022/09/26 06:33:06;;;;;;;3.13;2.80;;;12.90;99.90;;;;;;5040753;28;20243;-72
2022/09/26 06:35:33;;;;;;;4.30;2.67;;;12.90;99.90;;;;;;5040673;28;20196;-71
2022/09/26 06:37:59;;;;;;;4.33;2.93;;;13.00;99.90;;;;;;5040020;28;20323;-71
2022/09/26 06:40:27;;;;;;;4.03;3.07;;;13.00;99.90;;;;;;5035664;28;20697;-71
2022/09/26 06:42:55;;;;;;;3.37;3.07;;;13.00;99.90;;;;;;5036607;28;20706;-71
2022/09/26 06:45:23;;;;;;;5.60;3.53;;;13.00;99.90;;;;;;5036309;28;20200;-71
2022/09/26 06:47:49;;;;;;;4.90;3.67;;;13.00;99.90;;;;;;5043549;28;20208;-71
2022/09/26 06:50:16;;;;;;;4.33;3.33;;;13.10;99.90;;;;;;5032455;28;21014;-71
2022/09/26 06:52:43;;;;;;;7.30;3.73;;;13.20;99.90;;;;;;5034725;28;20244;-71
2022/09/26 06:55:10;;;;;;;5.63;4.00;;;13.20;99.90;;;;;;5041889;28;20220;-72
2022/09/26 06:57:39;;;;;;;4.37;3.97;;;13.10;99.90;;;;;;5043730;28;20215;-71
2022/09/26 07:00:13;;;;;;;5.17;4.33;;;13.20;99.90;;;;;;5043413;28;20244;-71
2022/09/26 07:02:49;;;;;;;5.00;4.20;;;13.20;99.90;;;;;;5034747;28;20204;-71
2022/09/26 07:05:16;;;;;;;4.80;4.40;;;13.20;99.90;;;;;;5040572;28;20533;-71
2022/09/26 07:07:45;;;;;;;5.20;4.33;;;13.30;99.90;;;;;;5033100;28;20215;-71
2022/09/26 07:10:12;;;;;;;5.17;4.40;;;13.40;99.90;;;;;;5034525;28;20255;-72
2022/09/26 07:12:40;;;;;;;4.70;4.30;;;13.50;99.90;;;;;;5028722;28;20236;-71
2022/09/26 07:15:10;;;;;;;4.30;4.00;;;13.50;99.90;;;;;;5038653;28;20681;-71
2022/09/26 07:17:37;;;;;;;4.33;4.00;;;13.50;99.90;;;;;;5040526;28;20220;-71
2022/09/26 07:20:04;;;;;;;4.40;4.00;;;13.60;99.90;;;;;;5039900;28;20212;-71
2022/09/26 07:22:31;;;;;;;9.70;3.30;;;13.70;99.90;;;;;;5037877;28;20210;-71
2022/09/26 07:24:58;;;;;;;4.70;3.60;;;13.70;99.90;;;;;;5040912;28;20228;-71
2022/09/26 07:27:25;;;;;;;5.00;3.30;;;13.50;99.90;;;;;;5044549;28;20204;-71
2022/09/26 07:29:52;;;;;;;3.63;3.00;;;13.60;99.90;;;;;;5043808;28;20215;-71
2022/09/26 07:32:20;;;;;;;2.97;2.77;;;13.70;99.90;;;;;;5049372;28;20231;-71
2022/09/26 07:34:47;;;;;;;3.73;3.20;;;13.70;99.90;;;;;;5049143;28;20226;-70
2022/09/26 07:37:15;;;;;;;3.10;2.63;;;13.80;99.90;;;;;;5043236;28;20212;-70
2022/09/26 07:39:42;;;;;;;3.50;2.77;;;13.80;99.90;;;;;;5039021;28;20283;-70
2022/09/26 07:42:09;;;;;;;2.50;2.30;;;13.80;99.90;;;;;;5046917;28;20765;-70
2022/09/26 07:44:36;;;;;;;3.17;2.50;;;13.80;99.90;;;;;;5047660;28;20207;-71
2022/09/26 07:52:33;;;;;;;3.43;2.50;;;13.90;99.90;;;;;;5043333;28;20346;-71
2022/09/26 07:55:00;;;;;;;2.87;1.97;;;13.90;99.90;;;;;;5041271;28;20710;-71
2022/09/26 07:57:33;;;;;;;2.27;2.03;;;13.90;99.90;;;;;;5041370;28;20208;-72
2022/09/26 07:59:59;;;;;;;3.63;2.47;;;14.00;99.90;;;;;;5036045;28;20212;-71
2022/09/26 08:02:30;;;;;;;4.43;2.47;;;14.00;99.90;;;;;;5039598;28;20205;-71
2022/09/26 08:04:59;;;;;;;2.93;2.43;;;14.10;99.90;;;;;;5042025;28;20287;-71
2022/09/26 08:07:25;;;;;;;3.03;2.50;;;14.10;99.90;;;;;;5036480;28;20209;-71
2022/09/26 08:09:53;;;;;;;6.30;2.10;;;14.20;99.90;;;;;;5039745;28;20522;-71
2022/09/26 08:12:19;;;;;;;4.23;2.23;;;14.30;99.90;;;;;;5042015;28;20723;-71
2022/09/26 08:14:48;;;;;;;3.93;1.97;;;14.40;99.90;;;;;;5040274;28;20260;-71
2022/09/26 08:17:15;;;;;;;2.77;1.90;;;14.50;99.90;;;;;;5037005;28;20479;-71
2022/09/26 08:19:41;;;;;;;2.07;1.87;;;14.40;99.90;;;;;;5044945;28;20208;-71
2022/09/26 08:22:10;;;;;;;11.00;3.13;;;14.40;99.90;;;;;;5047530;28;20204;-71
2022/09/26 08:24:37;;;;;;;3.53;1.80;;;14.50;99.90;;;;;;5041126;28;20240;-71
2022/09/26 08:27:05;;;;;;;3.07;1.60;;;14.50;99.90;;;;;;5042028;28;20208;-72
2022/09/26 08:29:33;;;;;;;2.90;1.50;;;14.60;99.90;;;;;;5044073;28;20579;-72
2022/09/26 08:32:02;;;;;;;3.90;1.73;;;14.60;99.90;;;;;;5044507;28;20208;-71
2022/09/26 08:34:30;;;;;;;2.93;1.70;;;14.60;99.90;;;;;;5045483;28;20599;-71
2022/09/26 08:36:57;;;;;;;2.50;1.60;;;14.60;99.90;;;;;;5035445;28;20294;-71
2022/09/26 08:39:26;;;;;;;3.83;1.50;;;14.70;99.90;;;;;;5029455;28;20263;-70
2022/09/26 08:42:05;;;;;;;3.87;1.67;;;14.70;99.90;;;;;;5030131;28;20208;-70
2022/09/26 08:44:45;;;;;;;2.47;2.27;;;14.80;99.90;;;;;;5042123;28;20194;-70
2022/09/26 08:47:36;;;;;;;1.60;1.20;;;14.90;99.90;;;;;;5039099;28;20286;-70
2022/09/26 08:50:13;;;;;;;1.80;1.00;;;14.90;99.90;;;;;;5035923;28;20203;-71
2022/09/26 08:52:45;;;;;;;1.53;1.00;;;15.00;99.90;;;;;;5041300;28;20702;-71
2022/09/26 08:55:17;;;;;;;1.10;1.10;;;15.00;99.90;;;;;;5035512;28;20200;-71
2022/09/26 08:57:49;;;;;;;2.43;1.40;;;14.90;99.90;;;;;;5039627;28;20228;-71
2022/09/26 09:00:19;;;;;;;3.73;1.30;;;14.90;99.90;;;;;;5038251;28;20223;-71
2022/09/26 09:03:01;;;;;;;4.53;1.50;;;14.90;99.90;;;;;;5037855;28;20212;-71
2022/09/26 09:05:34;;;;;;;1.97;0.80;;;14.90;99.90;;;;;;5039436;28;20656;-71
2022/09/26 09:08:06;;;;;;;1.67;1.27;;;14.90;99.90;;;;;;5038702;28;20291;-71
2022/09/26 09:10:51;;;;;;;2.57;1.30;;;15.00;99.90;;;;;;5041691;28;20323;-71
2022/09/26 09:13:44;;;;;;;2.10;1.30;;;15.10;99.90;;;;;;5036760;28;20698;-71
2022/09/26 09:16:21;;;;;;;1.47;1.23;;;15.10;99.90;;;;;;5038500;28;20193;-71
2022/09/26 09:18:56;;;;;;;3.50;1.27;;;15.10;99.90;;;;;;5032502;28;20211;-71
2022/09/26 09:21:39;;;;;;;1.73;1.10;;;15.20;99.90;;;;;;5042602;28;20223;-71
2022/09/26 09:24:17;;;;;;;1.63;1.23;;;15.40;99.90;;;;;;5041748;28;20246;-71
2022/09/26 09:26:55;;;;;;;1.20;1.10;;;15.30;99.90;;;;;;5039480;28;20220;-71
2022/09/26 09:29:42;;;;;;;1.53;1.30;;;15.50;99.90;;;;;;5038024;28;20196;-70
2022/09/26 09:32:12;;;;;;;1.00;0.93;;;15.60;99.90;;;;;;5035584;28;20189;-70
2022/09/26 09:34:43;;;;;;;2.40;1.27;;;15.70;99.90;;;;;;5037832;28;20200;-70
2022/09/26 09:37:15;;;;;;;1.53;0.90;;;15.90;99.90;;;;;;5037990;28;20746;-70
2022/09/26 09:39:47;;;;;;;1.60;1.10;;;15.90;99.90;;;;;;5037533;28;20543;-70
2022/09/26 09:42:22;;;;;;;1.53;1.20;;;16.10;99.90;;;;;;5039375;28;20215;-70
2022/09/26 09:44:53;;;;;;;2.30;1.00;;;16.30;99.90;;;;;;5035264;28;20717;-70
2022/09/26 09:47:21;;;;;;;1.47;0.93;;;16.40;99.90;;;;;;5037823;28;20200;-70
2022/09/26 09:49:49;;;;;;;1.00;0.83;;;16.50;99.90;;;;;;5037890;28;20204;-70
2022/09/26 09:52:36;;;;;;;2.40;0.83;;;16.60;99.90;;;;;;5037465;28;20200;-70
2022/09/26 09:55:15;;;;;;;1.03;0.77;;;16.80;99.90;;;;;;5040084;28;20208;-70
2022/09/26 09:58:03;;;;;;;0.57;0.57;;;16.80;99.90;;;;;;5040492;28;20208;-70
2022/09/26 10:00:36;;;;;;;1.13;1.00;;;16.90;99.90;;;;;;5040109;28;20200;-70
2022/09/26 10:03:10;;;;;;;1.27;0.97;;;16.90;99.90;;;;;;5036845;28;20204;-71
2022/09/26 10:05:41;;;;;;;3.07;0.90;;;16.70;99.90;;;;;;5037751;28;20197;-70
2022/09/26 10:08:13;;;;;;;1.40;0.63;;;16.70;99.90;;;;;;5036584;28;20204;-70
2022/09/26 10:10:42;;;;;;;1.30;0.73;;;16.80;99.90;;;;;;5034122;28;20725;-70
2022/09/26 10:13:11;;;;;;;1.40;0.67;;;16.90;99.90;;;;;;5039816;28;20309;-70
2022/09/26 10:15:43;;;;;;;2.50;0.70;;;17.10;99.90;;;;;;5036546;28;20205;-70
2022/09/26 10:18:16;;;;;;;1.07;0.77;;;17.30;99.90;;;;;;5035710;28;20207;-70
2022/09/26 10:20:52;;;;;;;1.10;0.73;;;17.30;99.90;;;;;;5038681;28;20259;-71
2022/09/26 10:23:23;;;;;;;0.60;0.60;;;17.40;99.90;;;;;;5041125;28;20675;-71
2022/09/26 10:25:58;;;;;;;2.33;0.63;;;17.30;99.90;;;;;;5038995;28;20200;-70
2022/09/26 10:28:30;;;;;;;1.73;0.80;;;16.90;99.90;;;;;;5039897;28;20219;-70
2022/09/26 10:31:05;;;;;;;1.23;0.80;;;16.80;99.90;;;;;;5039364;28;20214;-70
2022/09/26 10:33:34;;;;;;;1.37;0.90;;;16.60;99.90;;;;;;5038077;28;20217;-70
2022/09/26 10:36:09;;;;;;;2.10;0.83;;;16.50;99.90;;;;;;5039156;28;20204;-71
2022/09/26 10:40:43;;;;;;;1.27;1.10;;;16.50;99.90;;;;;;5037754;28;20694;-70
2022/09/26 10:41:38;;;;;;;1.30;0.80;;;16.40;99.90;;;;;;5039731;28;20184;-70
2022/09/26 10:44:21;;;;;;;1.20;1.00;;;16.30;99.90;;;;;;5035351;28;20211;-70
2022/09/26 10:46:51;;;;;;;2.83;1.00;;;16.30;99.90;;;;;;5039234;28;20299;-70
2022/09/26 10:49:22;;;;;;;0.87;0.80;;;16.20;99.90;;;;;;5036723;28;20492;-70
2022/09/26 10:51:59;;;;;;;1.90;0.90;;;16.20;99.90;;;;;;5035616;28;20207;-70
2022/09/26 10:54:39;;;;;;;2.30;0.60;;;16.10;99.90;;;;;;5038387;28;20235;-70
2022/09/26 10:57:08;;;;;;;1.20;0.60;;;16.10;99.90;;;;;;5036013;28;20738;-70
2022/09/26 10:59:40;;;;;;;1.17;0.73;;;16.10;99.90;;;;;;5036870;28;20274;-71
2022/09/26 11:02:15;;;;;;;0.53;0.53;;;16.10;99.90;;;;;;5036852;28;20284;-71
2022/09/26 11:07:34;;;;;;;1.80;0.70;;;16.10;99.90;;;;;;5034519;28;20219;-70
2022/09/26 11:10:05;;;;;;;3.80;0.90;;;16.30;99.90;;;;;;5034060;28;20958;-70
2022/09/26 11:12:38;;;;;;;1.07;0.70;;;16.50;99.90;;;;;;5034300;28;20197;-70
2022/09/26 11:15:11;;;;;;;2.67;1.00;;;16.60;99.90;;;;;;5037354;28;20200;-70
2022/09/26 11:17:44;;;;;;;1.80;0.87;;;16.70;99.90;;;;;;5036927;28;20201;-70
2022/09/26 11:20:17;;;;;;;0.57;0.57;;;16.80;99.90;;;;;;5036276;28;20239;-70
2022/09/26 11:22:50;;;;;;;1.07;0.57;;;16.80;99.90;;;;;;5037596;28;20283;-70
2022/09/26 11:25:25;;;;;;;2.13;0.90;;;16.90;99.90;;;;;;5035215;28;20204;-70
2022/09/26 11:27:57;;;;;;;0.67;0.67;;;17.10;99.90;;;;;;5037055;28;20200;-70
2022/09/26 11:30:28;;;;;;;1.57;0.70;;;17.10;99.90;;;;;;5038017;28;20197;-70
2022/09/26 11:32:59;;;;;;;7.90;1.20;;;17.10;99.90;;;;;;5032405;28;20204;-70
2022/09/26 11:35:41;;;;;;;1.43;1.13;;;17.10;99.90;;;;;;5035643;28;20193;-70
2022/09/26 11:38:17;;;;;;;1.87;0.90;;;17.10;99.90;;;;;;5036862;28;20292;-70
2022/09/26 11:41:01;;;;;;;1.67;0.90;;;17.00;99.90;;;;;;5038159;28;20188;-71
2022/09/26 11:43:51;;;;;;;3.70;1.10;;;17.00;99.90;;;;;;5036218;28;20619;-70
2022/09/26 11:46:38;;;;;;;6.03;1.23;;;17.30;99.90;;;;;;5036551;28;20193;-70
2022/09/26 11:49:47;;;;;;;0.60;0.60;;;17.50;99.90;;;;;;5037717;28;20211;-70
2022/09/26 11:52:28;;;;;;;2.13;0.93;;;17.60;99.90;;;;;;5034643;28;20193;-70
2022/09/26 11:55:13;;;;;;;0.80;0.80;;;17.90;99.90;;;;;;5037625;28;20228;-70
2022/09/26 11:57:48;;;;;;;0.67;0.67;;;18.20;99.90;;;;;;5036265;28;20242;-70
2022/09/26 12:00:23;;;;;;;1.00;0.90;;;18.50;99.90;;;;;;5036842;28;20558;-70
2022/09/26 12:03:26;;;;;;;1.50;0.87;;;18.60;99.90;;;;;;5038082;28;20602;-71
2022/09/26 12:05:58;;;;;;;1.17;1.00;;;18.80;99.90;;;;;;5035793;28;20515;-70
2022/09/26 12:08:38;;;;;;;4.40;1.17;;;18.90;99.90;;;;;;5036870;28;20283;-70
2022/09/26 12:11:16;;;;;;;3.30;1.30;;;18.80;99.90;;;;;;5033496;28;20223;-70
2022/09/26 12:13:52;;;;;;;2.50;1.27;;;18.60;99.90;;;;;;5035178;28;20278;-70
2022/09/26 12:16:27;;;;;;;2.80;1.03;;;18.10;99.90;;;;;;5039994;28;20215;-70
2022/09/26 12:19:03;;;;;;;4.17;1.00;;;17.80;99.90;;;;;;5038590;28;20290;-70
2022/09/26 12:21:41;;;;;;;2.23;1.03;;;17.60;99.90;;;;;;5038104;28;20203;-71
2022/09/26 12:24:36;;;;;;;0.97;0.90;;;17.40;99.90;;;;;;5039569;28;20251;-71
2022/09/26 12:27:10;;;;;;;2.83;1.00;;;17.30;99.90;;;;;;5039859;28;20190;-71
2022/09/26 12:29:44;;;;;;;1.63;1.00;;;17.20;99.90;;;;;;5037048;28;20224;-72
2022/09/26 12:32:30;;;;;;;2.20;1.07;;;17.20;99.90;;;;;;5040282;28;20651;-71
2022/09/26 12:35:21;;;;;;;1.57;1.00;;;17.20;99.90;;;;;;5038234;28;20224;-71
2022/09/26 12:38:20;;;;;;;1.20;1.00;;;17.10;99.90;;;;;;5039728;28;20204;-72
2022/09/26 12:40:57;;;;;;;3.40;1.23;;;17.00;99.90;;;;;;5038659;28;20189;-71
2022/09/26 12:43:55;;;;;;;8.37;1.40;;;17.00;99.90;;;;;;5040059;28;20192;-71
2022/09/26 12:46:35;;;;;;;3.67;1.03;;;17.00;99.90;;;;;;5038361;28;20193;-71
2022/09/26 12:49:20;;;;;;;1.43;0.80;;;16.90;99.90;;;;;;5042858;28;20290;-71
2022/09/26 12:51:51;;;;;;;2.20;1.10;;;17.00;99.90;;;;;;5037194;28;20204;-71
2022/09/26 12:54:39;;;;;;;2.00;1.33;;;17.30;99.90;;;;;;5037745;28;20326;-71
2022/09/26 12:57:16;;;;;;;4.37;0.90;;;17.40;99.90;;;;;;5039533;28;20203;-72
2022/09/26 13:00:07;;;;;;;3.23;1.20;;;17.40;99.90;;;;;;5036593;28;20670;-71
2022/09/26 13:03:00;;;;;;;1.17;0.87;;;17.50;99.90;;;;;;5040305;28;20197;-72
2022/09/26 13:05:51;;;;;;;5.03;1.20;;;17.50;99.90;;;;;;5021116;28;20208;-71
2022/09/26 13:08:29;;;;;;;4.30;1.40;;;17.60;99.90;;;;;;5028723;28;20429;-71
2022/09/26 13:11:08;;;;;;;2.00;1.20;;;17.60;99.90;;;;;;5039483;28;20224;-71
2022/09/26 13:14:12;;;;;;;1.27;1.17;;;17.80;99.90;;;;;;5039310;28;20219;-71
2022/09/26 13:16:52;;;;;;;2.30;1.27;;;18.00;99.90;;;;;;5041652;28;20203;-71
2022/09/26 13:19:25;;;;;;;1.47;0.90;;;18.20;99.90;;;;;;5033764;28;20319;-71
2022/09/26 13:21:58;;;;;;;1.80;1.20;;;18.50;99.90;;;;;;5036018;28;20201;-71
2022/09/26 13:24:34;;;;;;;4.37;1.50;;;18.70;99.90;;;;;;5036605;28;20243;-71
2022/09/26 13:27:12;;;;;;;2.63;1.10;;;18.70;99.90;;;;;;5033435;28;20192;-71